Time;durP1;ratioP1;P1;durP2;ratioP2;P2;SDS_P1;SDS_P2;PMS_P1;PMS_P2;Temp;Humidity;BMP_temperature;BMP_pressure;BME280_temperature;BME280_humidity;BME280_pressure;Samples;Min_cycle;Max_cycle;Signal;HPM_P1;HPM_P2
2022/09/19 04:16:56;;;;;;;;;3.25;1.75;;;;;;;;6399685;39;50688;-58
2022/09/19 04:23:19;;;;;;;;;4.00;1.75;;;;;;;;6489665;31;8876;-58
2022/09/19 04:29:44;;;;;;;;;4.75;1.75;;;;;;;;6490974;46;8972;-59
2022/09/19 04:35:48;;;;;;;;;6.50;4.00;;;;;;;;6486541;31;8952;-59
2022/09/19 04:41:53;;;;;;;;;1.25;0.75;;;;;;;;6490450;31;8858;-60
2022/09/19 04:47:55;;;;;;;;;4.00;2.00;;;;;;;;6489615;31;9025;-59
2022/09/19 04:54:02;;;;;;;;;5.00;3.25;;;;;;;;6488790;39;9004;-60
2022/09/19 05:00:07;;;;;;;;;5.75;4.00;;;;;;;;6490813;31;8996;-60
2022/09/19 05:06:14;;;;;;;;;8.25;5.25;;;;;;;;6489348;39;9014;-59
2022/09/19 05:12:16;;;;;;;;;3.00;1.75;;;;;;;;6489103;31;8947;-62
2022/09/19 05:18:24;;;;;;;;;6.00;5.00;;;;;;;;6487638;31;8906;-60
2022/09/19 05:24:37;;;;;;;;;5.50;5.00;;;;;;;;6486288;31;8905;-60
2022/09/19 05:30:47;;;;;;;;;3.25;3.25;;;;;;;;6487668;31;8882;-60
2022/09/19 05:36:52;;;;;;;;;6.25;5.75;;;;;;;;6485678;31;8955;-59
2022/09/19 05:43:05;;;;;;;;;6.25;4.50;;;;;;;;6488597;31;8905;-60
2022/09/19 05:49:10;;;;;;;;;5.50;5.50;;;;;;;;6487716;39;8876;-60
2022/09/19 05:55:21;;;;;;;;;5.00;5.00;;;;;;;;6488372;46;8872;-60
2022/09/19 06:01:39;;;;;;;;;3.75;3.25;;;;;;;;6489081;31;9549;-59
2022/09/19 06:07:56;;;;;;;;;4.50;4.50;;;;;;;;6488375;39;9578;-60
2022/09/19 06:14:13;;;;;;;;;9.25;9.00;;;;;;;;6488994;31;8960;-59
2022/09/19 06:20:21;;;;;;;;;7.75;5.00;;;;;;;;6488023;31;8958;-59
2022/09/19 06:26:44;;;;;;;;;8.00;8.00;;;;;;;;6487310;46;8905;-58
2022/09/19 06:32:47;;;;;;;;;6.00;6.00;;;;;;;;6485515;46;8914;-59
2022/09/19 06:38:54;;;;;;;;;10.00;7.25;;;;;;;;6487617;46;8892;-59
2022/09/19 06:45:17;;;;;;;;;9.75;9.75;;;;;;;;6485194;39;8953;-59
2022/09/19 06:51:30;;;;;;;;;20.00;19.33;;;;;;;;6484143;39;8888;-58
2022/09/19 06:57:41;;;;;;;;;17.75;15.25;;;;;;;;6483830;31;8968;-60
2022/09/19 07:03:44;;;;;;;;;12.33;6.00;;;;;;;;6482727;39;9060;-59
2022/09/19 07:09:52;;;;;;;;;5.00;5.00;;;;;;;;6482521;31;9023;-59
2022/09/19 07:16:02;;;;;;;;;13.00;8.00;;;;;;;;6483223;39;8968;-59
2022/09/19 07:22:06;;;;;;;;;52.00;43.75;;;;;;;;6482752;31;9052;-57
2022/09/19 07:28:30;;;;;;;;;5.67;5.67;;;;;;;;6482534;46;8920;-58
2022/09/19 07:34:33;;;;;;;;;6.67;3.33;;;;;;;;6482821;39;9069;-58
2022/09/19 07:40:38;;;;;;;;;26.67;26.67;;;;;;;;6480280;31;9107;-59
2022/09/19 07:53:37;;;;;;;;;46.25;41.00;;;;;;;;6480726;39;9075;-59
2022/09/19 07:59:44;;;;;;;;;43.00;36.33;;;;;;;;6480048;39;9000;-60
2022/09/19 08:05:49;;;;;;;;;30.00;24.00;;;;;;;;6483036;31;8959;-60
2022/09/19 08:11:52;;;;;;;;;6.33;6.33;;;;;;;;6482190;39;8994;-60
2022/09/19 08:18:10;;;;;;;;;7.33;5.00;;;;;;;;6480716;31;9109;-58
2022/09/19 08:24:13;;;;;;;;;4.00;3.67;;;;;;;;6480963;46;8954;-59
2022/09/19 08:30:20;;;;;;;;;7.33;7.33;;;;;;;;6482765;31;8983;-61
2022/09/19 08:36:23;;;;;;;;;4.00;3.33;;;;;;;;6483228;31;8954;-59
2022/09/19 08:42:41;;;;;;;;;7.00;7.00;;;;;;;;6483413;31;8920;-58
2022/09/19 08:49:02;;;;;;;;;4.00;4.00;;;;;;;;6482217;46;8914;-59
2022/09/19 08:55:24;;;;;;;;;3.00;3.00;;;;;;;;6480986;31;8954;-58
2022/09/19 09:01:35;;;;;;;;;3.33;2.00;;;;;;;;6482393;39;9013;-60
2022/09/19 09:08:15;;;;;;;;;3.00;3.00;;;;;;;;6482110;31;8912;-58
2022/09/19 09:15:22;;;;;;;;;3.33;3.33;;;;;;;;6482019;39;9079;-59
2022/09/19 09:21:59;;;;;;;;;2.00;2.00;;;;;;;;6478810;47;8960;-60
2022/09/19 09:28:26;;;;;;;;;3.00;3.00;;;;;;;;6483433;39;9036;-59
2022/09/19 09:35:12;;;;;;;;;2.00;2.00;;;;;;;;6482143;39;9034;-59
2022/09/19 09:48:08;;;;;;;;;2.00;2.00;;;;;;;;6483600;31;8924;-58
2022/09/19 10:07:30;;;;;;;;;2.75;2.00;;;;;;;;6481471;31;8945;-58
2022/09/19 10:13:44;;;;;;;;;2.00;2.00;;;;;;;;6480351;31;8959;-60
2022/09/19 10:20:03;;;;;;;;;3.75;2.00;;;;;;;;6482001;31;9023;-58
2022/09/19 10:26:15;;;;;;;;;4.33;4.33;;;;;;;;6480900;47;8939;-61
2022/09/19 10:32:34;;;;;;;;;5.25;5.25;;;;;;;;6482856;39;9058;-59
2022/09/19 10:39:16;;;;;;;;;1.00;1.00;;;;;;;;6482140;31;9032;-59
2022/09/19 10:45:27;;;;;;;;;4.00;2.00;;;;;;;;6482972;31;8948;-59
2022/09/19 10:51:41;;;;;;;;;1.50;1.50;;;;;;;;6482041;31;8924;-59
2022/09/19 10:57:59;;;;;;;;;1.00;1.00;;;;;;;;6481974;31;8945;-59
2022/09/19 11:04:21;;;;;;;;;1.00;1.00;;;;;;;;6483357;39;9019;-58
2022/09/19 11:10:38;;;;;;;;;3.00;3.00;;;;;;;;6482773;46;8980;-59
2022/09/19 11:17:02;;;;;;;;;2.00;2.00;;;;;;;;6483653;39;8959;-59
2022/09/19 11:23:40;;;;;;;;;4.25;4.25;;;;;;;;6483305;31;8975;-59
2022/09/19 11:30:00;;;;;;;;;2.00;2.00;;;;;;;;6482903;46;8912;-58
2022/09/19 11:36:38;;;;;;;;;1.00;1.00;;;;;;;;6482648;39;9049;-58
2022/09/19 11:43:07;;;;;;;;;3.25;1.50;;;;;;;;6481775;31;9035;-60
2022/09/19 11:49:23;;;;;;;;;2.00;2.00;;;;;;;;6481410;31;9024;-58
2022/09/19 11:55:58;;;;;;;;;2.00;2.00;;;;;;;;6479654;31;8913;-59
2022/09/19 12:02:25;;;;;;;;;2.00;2.00;;;;;;;;6479769;31;9021;-59
2022/09/19 12:08:52;;;;;;;;;6.00;4.50;;;;;;;;6481624;46;8947;-58
2022/09/19 12:15:22;;;;;;;;;4.75;4.75;;;;;;;;6479541;39;8975;-58
2022/09/19 12:21:47;;;;;;;;;1.00;1.00;;;;;;;;6480366;39;8957;-60
2022/09/19 12:27:59;;;;;;;;;2.00;2.00;;;;;;;;6477661;39;8942;-59
2022/09/19 12:34:35;;;;;;;;;3.00;3.00;;;;;;;;6481117;31;8996;-59
2022/09/19 12:40:56;;;;;;;;;1.00;1.00;;;;;;;;6477917;46;8948;-58
2022/09/19 12:47:25;;;;;;;;;2.00;2.00;;;;;;;;6479916;31;8877;-58
2022/09/19 12:54:09;;;;;;;;;18.33;17.67;;;;;;;;6478872;31;8944;-58
2022/09/19 13:00:14;;;;;;;;;3.75;3.75;;;;;;;;6481254;39;8910;-59
2022/09/19 13:06:24;;;;;;;;;6.25;6.25;;;;;;;;6480427;31;9079;-57
2022/09/19 13:13:11;;;;;;;;;3.00;3.00;;;;;;;;6478796;39;8952;-58
2022/09/19 13:25:49;;;;;;;;;9.25;7.75;;;;;;;;6479735;31;9085;-60
2022/09/19 13:31:55;;;;;;;;;7.25;7.00;;;;;;;;6480936;39;8925;-58
2022/09/19 13:38:00;;;;;;;;;2.75;2.75;;;;;;;;6480508;31;8960;-58
2022/09/19 13:44:10;;;;;;;;;5.25;5.25;;;;;;;;6480881;39;8967;-59
2022/09/19 13:50:20;;;;;;;;;2.00;2.00;;;;;;;;6479596;39;9677;-58
2022/09/19 13:56:35;;;;;;;;;4.00;3.50;;;;;;;;6478626;39;9005;-58
2022/09/19 14:02:40;;;;;;;;;2.00;2.00;;;;;;;;6479095;31;8989;-60
2022/09/19 14:08:45;;;;;;;;;8.50;8.50;;;;;;;;6486405;39;8955;-58
2022/09/19 14:15:29;;;;;;;;;3.00;2.25;;;;;;;;6488125;39;8999;-58
2022/09/19 14:21:34;;;;;;;;;8.75;7.25;;;;;;;;6524022;31;8997;-59
2022/09/19 14:27:49;;;;;;;;;1.00;1.00;;;;;;;;6487951;31;8863;-59
2022/09/19 14:34:16;;;;;;;;;2.00;2.00;;;;;;;;6486903;46;8996;-57
2022/09/19 14:40:25;;;;;;;;;4.25;3.25;;;;;;;;6489824;31;9557;-58
2022/09/19 14:46:28;;;;;;;;;4.00;1.25;;;;;;;;6486951;39;9026;-58
2022/09/19 14:52:35;;;;;;;;;2.25;2.25;;;;;;;;6487301;31;8925;-60
2022/09/19 14:58:40;;;;;;;;;1.00;1.00;;;;;;;;6305345;39;10001851;-58
2022/09/19 15:04:45;;;;;;;;;1.75;1.75;;;;;;;;6487787;39;8959;-59
2022/09/19 15:10:57;;;;;;;;;2.33;2.33;;;;;;;;6488362;39;8921;-59
2022/09/19 15:17:10;;;;;;;;;2.00;2.00;;;;;;;;6488132;39;8933;-58
2022/09/19 15:23:12;;;;;;;;;3.50;3.50;;;;;;;;6485934;46;8962;-59
2022/09/19 15:29:48;;;;;;;;;5.00;4.00;;;;;;;;6486853;31;8878;-60
2022/09/19 15:35:58;;;;;;;;;2.67;2.67;;;;;;;;6488041;31;8879;-60
2022/09/19 15:42:01;;;;;;;;;2.00;2.00;;;;;;;;6487813;39;8970;-58
2022/09/19 15:48:12;;;;;;;;;7.00;5.00;;;;;;;;6487141;39;8858;-59
2022/09/19 15:54:27;;;;;;;;;5.67;5.67;;;;;;;;6486995;39;8984;-59
2022/09/19 16:00:41;;;;;;;;;3.00;3.00;;;;;;;;6486518;39;8873;-59
2022/09/19 16:13:40;;;;;;;;;34.33;31.33;;;;;;;;6486006;31;8991;-59
2022/09/19 16:19:49;;;;;;;;;9.00;8.00;;;;;;;;6486099;39;8927;-58
2022/09/19 16:26:00;;;;;;;;;7.00;7.00;;;;;;;;6485777;46;8913;-60
2022/09/19 16:32:03;;;;;;;;;9.67;8.33;;;;;;;;6486224;46;9001;-58
2022/09/19 16:38:07;;;;;;;;;11.67;11.33;;;;;;;;6485247;39;9474;-59
2022/09/19 16:44:21;;;;;;;;;10.00;10.00;;;;;;;;6486119;31;8982;-59
2022/09/19 16:50:26;;;;;;;;;10.00;9.33;;;;;;;;6486831;39;8894;-58
2022/09/19 16:56:28;;;;;;;;;13.00;12.67;;;;;;;;6485046;46;9002;-59
2022/09/19 17:02:31;;;;;;;;;11.00;10.67;;;;;;;;6484666;39;8973;-59
2022/09/19 17:08:36;;;;;;;;;8.50;8.50;;;;;;;;6485085;46;8884;-59
2022/09/19 17:14:40;;;;;;;;;10.00;10.00;;;;;;;;6486073;31;8933;-59
2022/09/19 17:20:45;;;;;;;;;8.00;8.00;;;;;;;;6486030;31;8966;-58
2022/09/19 17:26:50;;;;;;;;;13.67;12.33;;;;;;;;6485448;39;8940;-59
2022/09/19 17:32:52;;;;;;;;;19.33;18.00;;;;;;;;6486246;39;8887;-59
2022/09/19 17:39:06;;;;;;;;;23.00;21.00;;;;;;;;6485683;46;8926;-60
2022/09/19 17:45:11;;;;;;;;;25.67;24.00;;;;;;;;6487785;39;8887;-59
2022/09/19 17:51:19;;;;;;;;;19.00;16.00;;;;;;;;6488713;31;9004;-59
2022/09/19 17:57:23;;;;;;;;;21.67;19.67;;;;;;;;6487731;31;8926;-58
2022/09/19 18:03:26;;;;;;;;;22.33;21.33;;;;;;;;6488645;46;8979;-58
2022/09/19 18:09:28;;;;;;;;;23.33;21.00;;;;;;;;6488202;31;8998;-59
2022/09/19 18:15:33;;;;;;;;;17.33;15.67;;;;;;;;6488475;31;8941;-59
2022/09/19 18:21:39;;;;;;;;;21.00;21.00;;;;;;;;6487916;39;8896;-59
2022/09/19 18:27:43;;;;;;;;;13.67;9.33;;;;;;;;6487320;46;8901;-58
2022/09/19 18:33:45;;;;;;;;;21.33;19.33;;;;;;;;6488090;39;8910;-58
2022/09/19 18:39:47;;;;;;;;;18.33;16.67;;;;;;;;6486659;39;8971;-58
2022/09/19 18:45:49;;;;;;;;;17.67;17.33;;;;;;;;6487591;36;8967;-59
2022/09/19 18:51:52;;;;;;;;;12.00;12.00;;;;;;;;6487070;39;9431;-58
2022/09/19 18:57:55;;;;;;;;;20.67;19.00;;;;;;;;6487187;39;9583;-58
2022/09/19 19:03:58;;;;;;;;;17.00;16.00;;;;;;;;6488134;39;9552;-59
2022/09/19 19:10:05;;;;;;;;;20.67;17.00;;;;;;;;6487988;39;8883;-58
2022/09/19 19:16:16;;;;;;;;;15.33;13.67;;;;;;;;6486833;39;8928;-59
2022/09/19 19:22:19;;;;;;;;;17.00;16.00;;;;;;;;6487466;39;8938;-59
2022/09/19 19:28:22;;;;;;;;;20.00;17.67;;;;;;;;6486075;31;9005;-58
2022/09/19 19:34:24;;;;;;;;;22.00;19.00;;;;;;;;6486761;46;8836;-58
2022/09/19 19:40:26;;;;;;;;;19.33;19.33;;;;;;;;6487651;31;8910;-60
2022/09/19 19:46:32;;;;;;;;;24.67;23.33;;;;;;;;6487944;31;8836;-60
2022/09/19 19:52:35;;;;;;;;;22.67;20.67;;;;;;;;6487669;31;8838;-58
2022/09/19 19:58:38;;;;;;;;;12.00;11.33;;;;;;;;6486500;39;8884;-59
2022/09/19 20:04:41;;;;;;;;;8.67;8.67;;;;;;;;6487793;31;8931;-59
2022/09/19 20:10:56;;;;;;;;;6.67;6.33;;;;;;;;6486403;46;8935;-59
2022/09/19 20:17:03;;;;;;;;;10.67;7.00;;;;;;;;6487958;39;8967;-59
2022/09/19 20:23:07;;;;;;;;;11.33;11.33;;;;;;;;6485909;31;8994;-61
2022/09/19 20:29:12;;;;;;;;;9.00;8.00;;;;;;;;6487196;31;9012;-60
2022/09/19 20:35:16;;;;;;;;;9.00;9.00;;;;;;;;6486764;46;8958;-61
2022/09/19 20:41:19;;;;;;;;;7.67;7.67;;;;;;;;6486007;39;9007;-60
2022/09/19 20:47:23;;;;;;;;;7.00;6.33;;;;;;;;6486468;31;8879;-58
2022/09/19 20:53:34;;;;;;;;;7.00;4.67;;;;;;;;6486351;39;8959;-58
2022/09/19 20:59:36;;;;;;;;;4.67;4.33;;;;;;;;6486976;39;8847;-59
2022/09/19 21:05:50;;;;;;;;;5.33;5.33;;;;;;;;6485948;46;8920;-58
2022/09/19 21:11:52;;;;;;;;;5.33;4.33;;;;;;;;6486816;39;8875;-57
2022/09/19 21:17:56;;;;;;;;;6.00;4.00;;;;;;;;6486483;39;8946;-61
2022/09/19 21:24:01;;;;;;;;;2.00;2.00;;;;;;;;6485472;47;8880;-60
2022/09/19 21:30:06;;;;;;;;;1.00;1.00;;;;;;;;6486486;39;8865;-60
2022/09/19 21:36:09;;;;;;;;;4.00;2.00;;;;;;;;6485612;31;9079;-61
2022/09/19 21:42:13;;;;;;;;;1.33;1.33;;;;;;;;6486315;31;8972;-58
2022/09/19 21:48:17;;;;;;;;;1.00;1.00;;;;;;;;6434964;31;5001303;-59
2022/09/19 21:54:20;;;;;;;;;0.00;0.00;;;;;;;;6485425;39;8858;-59
2022/09/19 22:00:24;;;;;;;;;1.00;1.00;;;;;;;;6485873;31;9036;-59
2022/09/19 22:06:29;;;;;;;;;0.00;0.00;;;;;;;;6485426;47;9028;-59
2022/09/19 22:12:31;;;;;;;;;2.00;2.00;;;;;;;;6485129;47;8888;-58
2022/09/19 22:18:35;;;;;;;;;1.00;1.00;;;;;;;;6503690;31;8915;-61
2022/09/19 22:24:37;;;;;;;;;0.00;0.00;;;;;;;;6485941;31;8875;-58
2022/09/19 22:30:40;;;;;;;;;2.00;1.67;;;;;;;;6487851;39;9604;-59
2022/09/19 22:36:43;;;;;;;;;3.67;2.67;;;;;;;;6486319;31;8962;-59
2022/09/19 22:42:46;;;;;;;;;6.00;6.00;;;;;;;;6488962;31;8862;-58
2022/09/19 22:48:49;;;;;;;;;6.00;6.00;;;;;;;;6487881;39;9548;-59
2022/09/19 22:54:54;;;;;;;;;8.33;8.33;;;;;;;;6487503;31;8951;-58
2022/09/19 23:01:01;;;;;;;;;9.00;7.75;;;;;;;;6487953;31;8998;-58
2022/09/19 23:07:03;;;;;;;;;9.25;9.25;;;;;;;;6486276;46;8992;-58
2022/09/19 23:19:29;;;;;;;;;13.00;12.25;;;;;;;;6486867;31;8912;-58
2022/09/19 23:25:32;;;;;;;;;11.00;10.00;;;;;;;;6487091;39;8997;-58
2022/09/19 23:31:36;;;;;;;;;6.75;6.00;;;;;;;;6487626;39;8984;-57
2022/09/19 23:37:40;;;;;;;;;10.25;8.25;;;;;;;;6486914;31;9035;-60
2022/09/19 23:43:42;;;;;;;;;9.75;9.75;;;;;;;;6487441;31;8957;-59
2022/09/19 23:49:53;;;;;;;;;10.00;10.00;;;;;;;;6505079;36;8922;-59
2022/09/19 23:55:55;;;;;;;;;13.50;13.50;;;;;;;;6486525;39;8989;-59
